sensor_id;sensor_type;location;lat;lon;timestamp;P1;durP1;ratioP1;P2;durP2;ratioP2
64560;SDS011;50960;46.838;16.838;2023-03-04T04:02:32;30.35;;;24.27;;
64560;SDS011;50960;46.838;16.838;2023-03-04T04:04:58;34.38;;;25.73;;
64560;SDS011;50960;46.838;16.838;2023-03-04T04:07:25;33.67;;;25.90;;
64560;SDS011;50960;46.838;16.838;2023-03-04T04:09:51;33.58;;;26.40;;
64560;SDS011;50960;46.838;16.838;2023-03-04T04:12:18;30.40;;;24.33;;
64560;SDS011;50960;46.838;16.838;2023-03-04T04:14:45;32.13;;;24.98;;
64560;SDS011;50960;46.838;16.838;2023-03-04T04:17:11;32.65;;;25.50;;
64560;SDS011;50960;46.838;16.838;2023-03-04T04:19:38;31.83;;;24.77;;
64560;SDS011;50960;46.838;16.838;2023-03-04T04:22:12;31.60;;;25.23;;
64560;SDS011;50960;46.838;16.838;2023-03-04T04:24:41;30.55;;;23.98;;
64560;SDS011;50960;46.838;16.838;2023-03-04T04:27:07;32.75;;;27.00;;
64560;SDS011;50960;46.838;16.838;2023-03-04T04:29:33;34.63;;;27.27;;
64560;SDS011;50960;46.838;16.838;2023-03-04T04:32:00;35.03;;;25.25;;
64560;SDS011;50960;46.838;16.838;2023-03-04T04:34:26;32.08;;;24.17;;
64560;SDS011;50960;46.838;16.838;2023-03-04T04:36:53;32.60;;;25.35;;
64560;SDS011;50960;46.838;16.838;2023-03-04T04:39:19;29.02;;;23.88;;
64560;SDS011;50960;46.838;16.838;2023-03-04T04:41:46;31.30;;;24.63;;
64560;SDS011;50960;46.838;16.838;2023-03-04T04:44:13;34.47;;;24.98;;
64560;SDS011;50960;46.838;16.838;2023-03-04T04:46:40;27.55;;;22.73;;
64560;SDS011;50960;46.838;16.838;2023-03-04T04:49:07;28.70;;;24.08;;
64560;SDS011;50960;46.838;16.838;2023-03-04T04:51:34;28.73;;;23.90;;
64560;SDS011;50960;46.838;16.838;2023-03-04T04:54:03;30.65;;;23.73;;
64560;SDS011;50960;46.838;16.838;2023-03-04T04:56:30;33.00;;;23.98;;
64560;SDS011;50960;46.838;16.838;2023-03-04T04:58:58;30.95;;;23.58;;
64560;SDS011;50960;46.838;16.838;2023-03-04T05:01:26;28.83;;;23.10;;
64560;SDS011;50960;46.838;16.838;2023-03-04T05:03:53;30.38;;;24.08;;
64560;SDS011;50960;46.838;16.838;2023-03-04T05:06:20;28.67;;;23.80;;
64560;SDS011;50960;46.838;16.838;2023-03-04T05:08:47;27.52;;;22.38;;
64560;SDS011;50960;46.838;16.838;2023-03-04T05:11:14;28.23;;;22.52;;
64560;SDS011;50960;46.838;16.838;2023-03-04T05:13:41;29.15;;;22.95;;
64560;SDS011;50960;46.838;16.838;2023-03-04T05:16:07;27.05;;;22.80;;
64560;SDS011;50960;46.838;16.838;2023-03-04T05:18:34;26.83;;;21.88;;
64560;SDS011;50960;46.838;16.838;2023-03-04T05:21:00;27.50;;;22.02;;
64560;SDS011;50960;46.838;16.838;2023-03-04T05:23:29;27.73;;;21.83;;
64560;SDS011;50960;46.838;16.838;2023-03-04T05:26:00;26.58;;;22.38;;
64560;SDS011;50960;46.838;16.838;2023-03-04T05:28:27;26.90;;;22.42;;
64560;SDS011;50960;46.838;16.838;2023-03-04T05:30:53;27.67;;;22.58;;
64560;SDS011;50960;46.838;16.838;2023-03-04T05:33:19;25.95;;;21.83;;
64560;SDS011;50960;46.838;16.838;2023-03-04T05:35:47;24.58;;;21.40;;
64560;SDS011;50960;46.838;16.838;2023-03-04T05:38:15;29.50;;;22.27;;
64560;SDS011;50960;46.838;16.838;2023-03-04T05:40:43;30.33;;;24.08;;
64560;SDS011;50960;46.838;16.838;2023-03-04T05:43:10;28.25;;;23.60;;
64560;SDS011;50960;46.838;16.838;2023-03-04T05:45:39;27.80;;;23.85;;
64560;SDS011;50960;46.838;16.838;2023-03-04T05:48:06;28.15;;;24.58;;
64560;SDS011;50960;46.838;16.838;2023-03-04T05:50:34;30.67;;;24.00;;
64560;SDS011;50960;46.838;16.838;2023-03-04T05:53:00;30.05;;;24.80;;
64560;SDS011;50960;46.838;16.838;2023-03-04T05:55:27;29.33;;;25.80;;
64560;SDS011;50960;46.838;16.838;2023-03-04T05:57:54;32.25;;;24.48;;
64560;SDS011;50960;46.838;16.838;2023-03-04T06:00:21;30.50;;;24.90;;
64560;SDS011;50960;46.838;16.838;2023-03-04T06:02:48;30.00;;;23.27;;
64560;SDS011;50960;46.838;16.838;2023-03-04T06:05:15;26.88;;;23.48;;
64560;SDS011;50960;46.838;16.838;2023-03-04T06:07:42;30.13;;;24.40;;
64560;SDS011;50960;46.838;16.838;2023-03-04T06:10:09;29.52;;;24.50;;
64560;SDS011;50960;46.838;16.838;2023-03-04T06:12:37;31.48;;;25.67;;
64560;SDS011;50960;46.838;16.838;2023-03-04T06:15:05;39.03;;;30.90;;
64560;SDS011;50960;46.838;16.838;2023-03-04T06:17:34;38.17;;;27.13;;
64560;SDS011;50960;46.838;16.838;2023-03-04T06:20:01;34.88;;;24.88;;
64560;SDS011;50960;46.838;16.838;2023-03-04T06:22:30;33.72;;;26.13;;
64560;SDS011;50960;46.838;16.838;2023-03-04T06:24:57;32.10;;;26.38;;
64560;SDS011;50960;46.838;16.838;2023-03-04T06:27:23;31.13;;;25.45;;
64560;SDS011;50960;46.838;16.838;2023-03-04T06:29:50;31.98;;;26.00;;
64560;SDS011;50960;46.838;16.838;2023-03-04T06:32:16;30.10;;;25.08;;
64560;SDS011;50960;46.838;16.838;2023-03-04T06:34:43;31.40;;;25.00;;
64560;SDS011;50960;46.838;16.838;2023-03-04T06:37:09;33.47;;;27.27;;
64560;SDS011;50960;46.838;16.838;2023-03-04T06:39:35;34.10;;;27.02;;
64560;SDS011;50960;46.838;16.838;2023-03-04T06:42:01;33.63;;;26.33;;
64560;SDS011;50960;46.838;16.838;2023-03-04T06:44:28;33.70;;;25.50;;
64560;SDS011;50960;46.838;16.838;2023-03-04T06:46:54;31.58;;;25.92;;
64560;SDS011;50960;46.838;16.838;2023-03-04T06:49:20;31.02;;;27.10;;
64560;SDS011;50960;46.838;16.838;2023-03-04T06:51:47;36.47;;;29.13;;
64560;SDS011;50960;46.838;16.838;2023-03-04T06:54:13;33.40;;;27.42;;
64560;SDS011;50960;46.838;16.838;2023-03-04T06:56:40;34.60;;;28.42;;
64560;SDS011;50960;46.838;16.838;2023-03-04T06:59:07;42.85;;;31.65;;
64560;SDS011;50960;46.838;16.838;2023-03-04T07:01:33;34.97;;;28.77;;
64560;SDS011;50960;46.838;16.838;2023-03-04T07:04:00;35.92;;;30.08;;
64560;SDS011;50960;46.838;16.838;2023-03-04T07:06:27;38.17;;;31.45;;
64560;SDS011;50960;46.838;16.838;2023-03-04T07:08:54;37.15;;;29.63;;
64560;SDS011;50960;46.838;16.838;2023-03-04T07:11:22;38.63;;;31.10;;
64560;SDS011;50960;46.838;16.838;2023-03-04T07:13:49;42.47;;;33.08;;
64560;SDS011;50960;46.838;16.838;2023-03-04T07:16:16;41.85;;;32.78;;
64560;SDS011;50960;46.838;16.838;2023-03-04T07:18:45;36.08;;;28.83;;
64560;SDS011;50960;46.838;16.838;2023-03-04T07:21:12;39.47;;;31.27;;
64560;SDS011;50960;46.838;16.838;2023-03-04T07:23:39;36.85;;;31.27;;
64560;SDS011;50960;46.838;16.838;2023-03-04T07:26:06;40.03;;;32.50;;
64560;SDS011;50960;46.838;16.838;2023-03-04T07:28:33;41.25;;;33.13;;
64560;SDS011;50960;46.838;16.838;2023-03-04T07:33:48;43.63;;;34.08;;
64560;SDS011;50960;46.838;16.838;2023-03-04T07:36:15;39.67;;;33.90;;
64560;SDS011;50960;46.838;16.838;2023-03-04T07:38:44;39.67;;;33.72;;
64560;SDS011;50960;46.838;16.838;2023-03-04T07:41:12;39.92;;;33.15;;
64560;SDS011;50960;46.838;16.838;2023-03-04T07:43:38;38.20;;;32.35;;
64560;SDS011;50960;46.838;16.838;2023-03-04T07:46:05;42.28;;;32.50;;
64560;SDS011;50960;46.838;16.838;2023-03-04T07:48:33;37.42;;;32.03;;
64560;SDS011;50960;46.838;16.838;2023-03-04T07:51:03;37.85;;;30.70;;
64560;SDS011;50960;46.838;16.838;2023-03-04T07:53:30;41.75;;;31.35;;
64560;SDS011;50960;46.838;16.838;2023-03-04T07:55:58;38.65;;;30.95;;
64560;SDS011;50960;46.838;16.838;2023-03-04T07:58:24;39.72;;;33.00;;
64560;SDS011;50960;46.838;16.838;2023-03-04T08:00:51;41.10;;;32.72;;
64560;SDS011;50960;46.838;16.838;2023-03-04T08:03:17;41.67;;;32.20;;
64560;SDS011;50960;46.838;16.838;2023-03-04T08:05:43;40.13;;;32.05;;
64560;SDS011;50960;46.838;16.838;2023-03-04T08:08:10;42.70;;;32.83;;
64560;SDS011;50960;46.838;16.838;2023-03-04T08:10:36;40.80;;;31.67;;
64560;SDS011;50960;46.838;16.838;2023-03-04T08:13:05;43.25;;;33.13;;
64560;SDS011;50960;46.838;16.838;2023-03-04T08:15:31;43.53;;;33.13;;
64560;SDS011;50960;46.838;16.838;2023-03-04T08:18:00;40.42;;;32.03;;
64560;SDS011;50960;46.838;16.838;2023-03-04T08:20:26;40.65;;;32.15;;
64560;SDS011;50960;46.838;16.838;2023-03-04T08:22:52;40.00;;;31.42;;
64560;SDS011;50960;46.838;16.838;2023-03-04T08:25:19;39.63;;;32.15;;
64560;SDS011;50960;46.838;16.838;2023-03-04T08:27:46;41.47;;;32.08;;
64560;SDS011;50960;46.838;16.838;2023-03-04T08:30:13;42.30;;;32.53;;
64560;SDS011;50960;46.838;16.838;2023-03-04T08:32:39;42.60;;;32.38;;
64560;SDS011;50960;46.838;16.838;2023-03-04T08:35:05;39.53;;;31.05;;
64560;SDS011;50960;46.838;16.838;2023-03-04T08:37:32;38.03;;;29.63;;
64560;SDS011;50960;46.838;16.838;2023-03-04T08:39:58;38.83;;;30.65;;
64560;SDS011;50960;46.838;16.838;2023-03-04T08:42:24;39.47;;;30.95;;
64560;SDS011;50960;46.838;16.838;2023-03-04T08:44:52;40.92;;;31.58;;
64560;SDS011;50960;46.838;16.838;2023-03-04T08:47:18;36.78;;;29.48;;
64560;SDS011;50960;46.838;16.838;2023-03-04T08:49:44;32.30;;;25.40;;
64560;SDS011;50960;46.838;16.838;2023-03-04T08:52:12;32.78;;;24.58;;
64560;SDS011;50960;46.838;16.838;2023-03-04T08:54:38;30.15;;;22.10;;
64560;SDS011;50960;46.838;16.838;2023-03-04T08:57:04;30.80;;;22.10;;
64560;SDS011;50960;46.838;16.838;2023-03-04T08:59:32;33.30;;;21.63;;
64560;SDS011;50960;46.838;16.838;2023-03-04T09:01:58;29.38;;;23.20;;
64560;SDS011;50960;46.838;16.838;2023-03-04T09:04:25;29.45;;;21.67;;
64560;SDS011;50960;46.838;16.838;2023-03-04T09:06:51;30.35;;;22.25;;
64560;SDS011;50960;46.838;16.838;2023-03-04T09:09:17;31.35;;;23.35;;
64560;SDS011;50960;46.838;16.838;2023-03-04T09:11:44;29.55;;;22.83;;
64560;SDS011;50960;46.838;16.838;2023-03-04T09:14:10;34.63;;;24.55;;
64560;SDS011;50960;46.838;16.838;2023-03-04T09:16:36;32.08;;;24.52;;
64560;SDS011;50960;46.838;16.838;2023-03-04T09:19:03;34.90;;;24.75;;
64560;SDS011;50960;46.838;16.838;2023-03-04T09:21:29;33.28;;;24.88;;
64560;SDS011;50960;46.838;16.838;2023-03-04T09:23:56;35.28;;;26.10;;
64560;SDS011;50960;46.838;16.838;2023-03-04T09:26:23;35.25;;;24.50;;
64560;SDS011;50960;46.838;16.838;2023-03-04T09:28:52;35.22;;;25.27;;
64560;SDS011;50960;46.838;16.838;2023-03-04T09:31:20;35.28;;;25.77;;
64560;SDS011;50960;46.838;16.838;2023-03-04T09:33:47;33.88;;;26.23;;
64560;SDS011;50960;46.838;16.838;2023-03-04T09:36:14;36.60;;;26.17;;
64560;SDS011;50960;46.838;16.838;2023-03-04T09:38:41;31.90;;;24.58;;
64560;SDS011;50960;46.838;16.838;2023-03-04T09:41:09;31.95;;;24.75;;
64560;SDS011;50960;46.838;16.838;2023-03-04T09:43:41;33.10;;;24.45;;
64560;SDS011;50960;46.838;16.838;2023-03-04T09:46:14;32.53;;;24.45;;
64560;SDS011;50960;46.838;16.838;2023-03-04T09:48:50;33.35;;;23.52;;
64560;SDS011;50960;46.838;16.838;2023-03-04T09:51:40;32.35;;;26.20;;
64560;SDS011;50960;46.838;16.838;2023-03-04T09:54:31;34.72;;;25.23;;
64560;SDS011;50960;46.838;16.838;2023-03-04T09:57:22;35.20;;;24.88;;
64560;SDS011;50960;46.838;16.838;2023-03-04T10:03:27;37.67;;;27.02;;
64560;SDS011;50960;46.838;16.838;2023-03-04T10:05:33;37.97;;;26.77;;
64560;SDS011;50960;46.838;16.838;2023-03-04T10:08:19;31.27;;;23.60;;
64560;SDS011;50960;46.838;16.838;2023-03-04T10:10:57;35.10;;;24.90;;
64560;SDS011;50960;46.838;16.838;2023-03-04T10:13:28;31.50;;;24.40;;
64560;SDS011;50960;46.838;16.838;2023-03-04T10:16:01;29.58;;;22.30;;
64560;SDS011;50960;46.838;16.838;2023-03-04T10:18:32;29.50;;;23.35;;
64560;SDS011;50960;46.838;16.838;2023-03-04T10:23:49;33.97;;;23.50;;
64560;SDS011;50960;46.838;16.838;2023-03-04T10:26:16;27.38;;;21.52;;
64560;SDS011;50960;46.838;16.838;2023-03-04T10:28:45;29.02;;;21.08;;
64560;SDS011;50960;46.838;16.838;2023-03-04T10:31:19;31.63;;;22.58;;
64560;SDS011;50960;46.838;16.838;2023-03-04T10:34:09;28.48;;;21.10;;
64560;SDS011;50960;46.838;16.838;2023-03-04T10:36:40;27.45;;;20.75;;
64560;SDS011;50960;46.838;16.838;2023-03-04T10:39:24;27.70;;;19.77;;
64560;SDS011;50960;46.838;16.838;2023-03-04T10:42:33;24.52;;;15.98;;
64560;SDS011;50960;46.838;16.838;2023-03-04T10:44:50;28.92;;;20.38;;
64560;SDS011;50960;46.838;16.838;2023-03-04T10:47:22;22.73;;;16.02;;
64560;SDS011;50960;46.838;16.838;2023-03-04T10:49:51;18.50;;;11.40;;
64560;SDS011;50960;46.838;16.838;2023-03-04T10:52:26;26.92;;;21.67;;
64560;SDS011;50960;46.838;16.838;2023-03-04T10:55:01;27.88;;;19.52;;
64560;SDS011;50960;46.838;16.838;2023-03-04T10:57:39;28.58;;;20.52;;
64560;SDS011;50960;46.838;16.838;2023-03-04T11:02:43;26.17;;;20.27;;
64560;SDS011;50960;46.838;16.838;2023-03-04T11:07:42;26.77;;;19.75;;
64560;SDS011;50960;46.838;16.838;2023-03-04T11:10:20;22.88;;;17.30;;
64560;SDS011;50960;46.838;16.838;2023-03-04T11:12:50;26.55;;;19.05;;
64560;SDS011;50960;46.838;16.838;2023-03-04T11:15:24;23.65;;;18.25;;
64560;SDS011;50960;46.838;16.838;2023-03-04T11:17:54;24.02;;;18.20;;
64560;SDS011;50960;46.838;16.838;2023-03-04T11:23:01;24.58;;;18.35;;
64560;SDS011;50960;46.838;16.838;2023-03-04T11:25:41;24.58;;;18.15;;
64560;SDS011;50960;46.838;16.838;2023-03-04T11:30:56;24.83;;;17.42;;
64560;SDS011;50960;46.838;16.838;2023-03-04T11:38:54;24.90;;;19.08;;
64560;SDS011;50960;46.838;16.838;2023-03-04T11:43:58;25.60;;;18.23;;
64560;SDS011;50960;46.838;16.838;2023-03-04T11:46:32;24.60;;;16.90;;
64560;SDS011;50960;46.838;16.838;2023-03-04T11:52:15;23.20;;;16.92;;
64560;SDS011;50960;46.838;16.838;2023-03-04T12:03:32;23.27;;;16.23;;
64560;SDS011;50960;46.838;16.838;2023-03-04T12:08:41;18.65;;;13.73;;
64560;SDS011;50960;46.838;16.838;2023-03-04T12:11:25;19.35;;;13.85;;
64560;SDS011;50960;46.838;16.838;2023-03-04T12:14:22;19.00;;;14.32;;
64560;SDS011;50960;46.838;16.838;2023-03-04T12:44:40;17.25;;;11.55;;
64560;SDS011;50960;46.838;16.838;2023-03-04T12:53:00;20.10;;;11.90;;
64560;SDS011;50960;46.838;16.838;2023-03-04T12:55:43;19.40;;;11.40;;
64560;SDS011;50960;46.838;16.838;2023-03-04T12:58:17;15.30;;;11.00;;
64560;SDS011;50960;46.838;16.838;2023-03-04T13:01:05;19.65;;;12.77;;
64560;SDS011;50960;46.838;16.838;2023-03-04T13:11:50;17.02;;;11.48;;
64560;SDS011;50960;46.838;16.838;2023-03-04T13:14:25;13.38;;;10.98;;
64560;SDS011;50960;46.838;16.838;2023-03-04T13:16:57;15.68;;;10.65;;
64560;SDS011;50960;46.838;16.838;2023-03-04T13:31:05;14.77;;;11.00;;
64560;SDS011;50960;46.838;16.838;2023-03-04T13:36:04;16.38;;;10.73;;
64560;SDS011;50960;46.838;16.838;2023-03-04T13:39:25;18.92;;;11.45;;
64560;SDS011;50960;46.838;16.838;2023-03-04T13:41:48;17.33;;;10.60;;
64560;SDS011;50960;46.838;16.838;2023-03-04T13:44:32;17.05;;;10.43;;
64560;SDS011;50960;46.838;16.838;2023-03-04T13:47:20;15.23;;;10.40;;
64560;SDS011;50960;46.838;16.838;2023-03-04T13:50:14;17.60;;;10.80;;
64560;SDS011;50960;46.838;16.838;2023-03-04T13:52:46;14.57;;;9.98;;
64560;SDS011;50960;46.838;16.838;2023-03-04T13:55:29;16.73;;;10.20;;
64560;SDS011;50960;46.838;16.838;2023-03-04T13:57:56;13.60;;;10.35;;
64560;SDS011;50960;46.838;16.838;2023-03-04T14:00:22;17.10;;;10.07;;
64560;SDS011;50960;46.838;16.838;2023-03-04T14:02:49;14.93;;;9.95;;
64560;SDS011;50960;46.838;16.838;2023-03-04T14:05:16;11.95;;;9.50;;
64560;SDS011;50960;46.838;16.838;2023-03-04T14:07:42;16.95;;;11.25;;
64560;SDS011;50960;46.838;16.838;2023-03-04T14:12:47;13.07;;;10.00;;
64560;SDS011;50960;46.838;16.838;2023-03-04T14:15:23;13.13;;;10.05;;
64560;SDS011;50960;46.838;16.838;2023-03-04T14:17:55;15.27;;;10.48;;
64560;SDS011;50960;46.838;16.838;2023-03-04T14:20:30;13.95;;;9.50;;
64560;SDS011;50960;46.838;16.838;2023-03-04T14:23:00;16.40;;;10.60;;
64560;SDS011;50960;46.838;16.838;2023-03-04T14:25:29;17.15;;;10.73;;
64560;SDS011;50960;46.838;16.838;2023-03-04T14:28:01;16.20;;;10.38;;
64560;SDS011;50960;46.838;16.838;2023-03-04T14:30:36;15.95;;;9.80;;
64560;SDS011;50960;46.838;16.838;2023-03-04T14:33:05;14.23;;;9.23;;
64560;SDS011;50960;46.838;16.838;2023-03-04T14:35:33;13.82;;;9.05;;
64560;SDS011;50960;46.838;16.838;2023-03-04T14:40:37;14.75;;;10.88;;
64560;SDS011;50960;46.838;16.838;2023-03-04T14:43:09;14.93;;;10.40;;
64560;SDS011;50960;46.838;16.838;2023-03-04T14:45:43;14.18;;;10.18;;
64560;SDS011;50960;46.838;16.838;2023-03-04T14:48:31;12.82;;;10.13;;
64560;SDS011;50960;46.838;16.838;2023-03-04T14:51:04;14.63;;;10.18;;
64560;SDS011;50960;46.838;16.838;2023-03-04T14:53:56;12.82;;;9.73;;
64560;SDS011;50960;46.838;16.838;2023-03-04T14:56:27;12.95;;;9.65;;
64560;SDS011;50960;46.838;16.838;2023-03-04T14:58:57;14.23;;;9.23;;
64560;SDS011;50960;46.838;16.838;2023-03-04T15:01:33;13.07;;;9.35;;
64560;SDS011;50960;46.838;16.838;2023-03-04T15:04:02;18.13;;;9.88;;
64560;SDS011;50960;46.838;16.838;2023-03-04T15:06:48;14.00;;;9.57;;
64560;SDS011;50960;46.838;16.838;2023-03-04T15:09:20;12.63;;;10.07;;
64560;SDS011;50960;46.838;16.838;2023-03-04T15:11:56;11.60;;;8.98;;
64560;SDS011;50960;46.838;16.838;2023-03-04T15:14:48;13.85;;;9.60;;
64560;SDS011;50960;46.838;16.838;2023-03-04T15:19:57;13.63;;;9.65;;
64560;SDS011;50960;46.838;16.838;2023-03-04T15:25:17;13.45;;;9.82;;
64560;SDS011;50960;46.838;16.838;2023-03-04T15:27:44;13.57;;;10.13;;
64560;SDS011;50960;46.838;16.838;2023-03-04T15:30:16;15.45;;;10.27;;
64560;SDS011;50960;46.838;16.838;2023-03-04T15:32:48;13.18;;;9.48;;
64560;SDS011;50960;46.838;16.838;2023-03-04T15:35:15;13.90;;;9.32;;
64560;SDS011;50960;46.838;16.838;2023-03-04T15:37:43;14.55;;;9.90;;
64560;SDS011;50960;46.838;16.838;2023-03-04T15:40:24;14.00;;;9.50;;
64560;SDS011;50960;46.838;16.838;2023-03-04T15:42:59;12.75;;;9.20;;
64560;SDS011;50960;46.838;16.838;2023-03-04T15:45:29;14.15;;;9.30;;
64560;SDS011;50960;46.838;16.838;2023-03-04T15:48:00;12.15;;;8.98;;
64560;SDS011;50960;46.838;16.838;2023-03-04T15:50:34;13.82;;;9.13;;
64560;SDS011;50960;46.838;16.838;2023-03-04T15:53:04;17.67;;;11.80;;
64560;SDS011;50960;46.838;16.838;2023-03-04T15:55:35;11.68;;;9.35;;
64560;SDS011;50960;46.838;16.838;2023-03-04T15:58:04;13.13;;;9.13;;
64560;SDS011;50960;46.838;16.838;2023-03-04T16:00:31;13.60;;;8.80;;
64560;SDS011;50960;46.838;16.838;2023-03-04T16:02:59;10.30;;;8.43;;
64560;SDS011;50960;46.838;16.838;2023-03-04T16:05:28;13.25;;;9.02;;
64560;SDS011;50960;46.838;16.838;2023-03-04T16:07:56;13.10;;;9.65;;
64560;SDS011;50960;46.838;16.838;2023-03-04T16:12:54;12.65;;;9.50;;
64560;SDS011;50960;46.838;16.838;2023-03-04T16:15:23;15.18;;;9.23;;
64560;SDS011;50960;46.838;16.838;2023-03-04T16:17:52;15.25;;;9.82;;
64560;SDS011;50960;46.838;16.838;2023-03-04T16:20:23;19.27;;;10.40;;
64560;SDS011;50960;46.838;16.838;2023-03-04T16:22:54;13.50;;;10.40;;
64560;SDS011;50960;46.838;16.838;2023-03-04T16:25:29;16.08;;;10.52;;
64560;SDS011;50960;46.838;16.838;2023-03-04T16:27:57;14.98;;;10.75;;
64560;SDS011;50960;46.838;16.838;2023-03-04T16:30:28;21.15;;;10.30;;
64560;SDS011;50960;46.838;16.838;2023-03-04T16:32:56;20.90;;;11.40;;
64560;SDS011;50960;46.838;16.838;2023-03-04T16:35:23;17.67;;;12.18;;
64560;SDS011;50960;46.838;16.838;2023-03-04T16:37:52;23.35;;;13.15;;
64560;SDS011;50960;46.838;16.838;2023-03-04T16:40:21;23.08;;;14.02;;
64560;SDS011;50960;46.838;16.838;2023-03-04T16:42:50;22.20;;;13.88;;
64560;SDS011;50960;46.838;16.838;2023-03-04T16:45:19;24.35;;;14.85;;
64560;SDS011;50960;46.838;16.838;2023-03-04T16:47:48;26.90;;;14.63;;
64560;SDS011;50960;46.838;16.838;2023-03-04T16:50:16;26.15;;;16.48;;
64560;SDS011;50960;46.838;16.838;2023-03-04T16:52:48;29.25;;;17.20;;
64560;SDS011;50960;46.838;16.838;2023-03-04T16:55:16;27.88;;;17.10;;
64560;SDS011;50960;46.838;16.838;2023-03-04T16:58:04;27.15;;;17.02;;
64560;SDS011;50960;46.838;16.838;2023-03-04T17:00:30;27.48;;;17.02;;
64560;SDS011;50960;46.838;16.838;2023-03-04T17:02:58;25.50;;;17.10;;
64560;SDS011;50960;46.838;16.838;2023-03-04T17:05:26;25.88;;;16.50;;
64560;SDS011;50960;46.838;16.838;2023-03-04T17:07:55;24.48;;;16.33;;
64560;SDS011;50960;46.838;16.838;2023-03-04T17:10:22;28.00;;;16.50;;
64560;SDS011;50960;46.838;16.838;2023-03-04T17:12:52;23.55;;;15.13;;
64560;SDS011;50960;46.838;16.838;2023-03-04T17:15:19;22.58;;;15.57;;
64560;SDS011;50960;46.838;16.838;2023-03-04T17:17:45;24.00;;;15.43;;
64560;SDS011;50960;46.838;16.838;2023-03-04T17:20:14;23.67;;;15.55;;
64560;SDS011;50960;46.838;16.838;2023-03-04T17:22:43;28.80;;;15.25;;
64560;SDS011;50960;46.838;16.838;2023-03-04T17:25:11;24.20;;;15.15;;
64560;SDS011;50960;46.838;16.838;2023-03-04T17:27:40;26.33;;;16.23;;
64560;SDS011;50960;46.838;16.838;2023-03-04T17:30:09;23.67;;;15.02;;
64560;SDS011;50960;46.838;16.838;2023-03-04T17:32:38;23.65;;;16.48;;
64560;SDS011;50960;46.838;16.838;2023-03-04T17:35:08;26.17;;;16.13;;
64560;SDS011;50960;46.838;16.838;2023-03-04T17:37:36;22.80;;;15.07;;
64560;SDS011;50960;46.838;16.838;2023-03-04T17:40:03;22.90;;;15.55;;
64560;SDS011;50960;46.838;16.838;2023-03-04T17:42:39;26.23;;;16.20;;
64560;SDS011;50960;46.838;16.838;2023-03-04T17:45:08;22.27;;;15.93;;
64560;SDS011;50960;46.838;16.838;2023-03-04T17:47:37;22.48;;;16.55;;
64560;SDS011;50960;46.838;16.838;2023-03-04T17:50:04;27.35;;;17.52;;
64560;SDS011;50960;46.838;16.838;2023-03-04T17:52:32;25.77;;;16.38;;
64560;SDS011;50960;46.838;16.838;2023-03-04T17:55:04;22.45;;;16.45;;
64560;SDS011;50960;46.838;16.838;2023-03-04T17:57:34;22.45;;;16.60;;
64560;SDS011;50960;46.838;16.838;2023-03-04T18:00:06;27.52;;;16.73;;
64560;SDS011;50960;46.838;16.838;2023-03-04T18:02:34;26.30;;;17.50;;
64560;SDS011;50960;46.838;16.838;2023-03-04T18:05:02;27.38;;;18.15;;
64560;SDS011;50960;46.838;16.838;2023-03-04T18:07:32;35.30;;;23.95;;
64560;SDS011;50960;46.838;16.838;2023-03-04T18:10:09;27.80;;;19.52;;
64560;SDS011;50960;46.838;16.838;2023-03-04T18:12:39;32.03;;;19.40;;
64560;SDS011;50960;46.838;16.838;2023-03-04T18:15:06;32.15;;;22.02;;
64560;SDS011;50960;46.838;16.838;2023-03-04T18:17:35;26.90;;;20.55;;
64560;SDS011;50960;46.838;16.838;2023-03-04T18:20:01;32.75;;;21.95;;
64560;SDS011;50960;46.838;16.838;2023-03-04T18:22:29;31.17;;;20.77;;
64560;SDS011;50960;46.838;16.838;2023-03-04T18:24:56;27.25;;;20.42;;
64560;SDS011;50960;46.838;16.838;2023-03-04T18:27:23;27.70;;;19.65;;
64560;SDS011;50960;46.838;16.838;2023-03-04T18:29:50;26.13;;;18.67;;
64560;SDS011;50960;46.838;16.838;2023-03-04T18:32:18;26.98;;;18.52;;
64560;SDS011;50960;46.838;16.838;2023-03-04T18:34:45;25.60;;;18.15;;
64560;SDS011;50960;46.838;16.838;2023-03-04T18:37:12;22.83;;;17.50;;
64560;SDS011;50960;46.838;16.838;2023-03-04T18:39:38;22.52;;;15.85;;
64560;SDS011;50960;46.838;16.838;2023-03-04T18:42:07;24.45;;;15.93;;
64560;SDS011;50960;46.838;16.838;2023-03-04T18:44:33;22.85;;;16.40;;
64560;SDS011;50960;46.838;16.838;2023-03-04T18:47:02;23.80;;;16.17;;
64560;SDS011;50960;46.838;16.838;2023-03-04T18:49:29;21.00;;;15.77;;
64560;SDS011;50960;46.838;16.838;2023-03-04T18:51:56;21.63;;;15.45;;
64560;SDS011;50960;46.838;16.838;2023-03-04T18:54:24;21.40;;;16.48;;
64560;SDS011;50960;46.838;16.838;2023-03-04T18:56:55;20.95;;;16.05;;
64560;SDS011;50960;46.838;16.838;2023-03-04T18:59:30;21.63;;;16.20;;
64560;SDS011;50960;46.838;16.838;2023-03-04T19:02:04;23.02;;;16.77;;
64560;SDS011;50960;46.838;16.838;2023-03-04T19:04:48;21.45;;;15.65;;
64560;SDS011;50960;46.838;16.838;2023-03-04T19:07:15;19.67;;;14.98;;
64560;SDS011;50960;46.838;16.838;2023-03-04T19:09:42;21.63;;;16.08;;
64560;SDS011;50960;46.838;16.838;2023-03-04T19:12:09;20.83;;;15.13;;
64560;SDS011;50960;46.838;16.838;2023-03-04T19:14:37;19.45;;;14.77;;
64560;SDS011;50960;46.838;16.838;2023-03-04T19:17:03;20.05;;;15.40;;
64560;SDS011;50960;46.838;16.838;2023-03-04T19:19:31;19.83;;;15.30;;
64560;SDS011;50960;46.838;16.838;2023-03-04T19:21:58;23.17;;;16.55;;
64560;SDS011;50960;46.838;16.838;2023-03-04T19:24:25;20.25;;;15.60;;
64560;SDS011;50960;46.838;16.838;2023-03-04T19:26:51;22.60;;;16.55;;
64560;SDS011;50960;46.838;16.838;2023-03-04T19:29:18;22.90;;;16.17;;
64560;SDS011;50960;46.838;16.838;2023-03-04T19:31:44;21.92;;;16.30;;
64560;SDS011;50960;46.838;16.838;2023-03-04T19:34:11;22.70;;;16.30;;
64560;SDS011;50960;46.838;16.838;2023-03-04T19:36:39;18.17;;;14.98;;
64560;SDS011;50960;46.838;16.838;2023-03-04T19:39:07;21.20;;;16.15;;
64560;SDS011;50960;46.838;16.838;2023-03-04T19:41:37;22.00;;;16.08;;
64560;SDS011;50960;46.838;16.838;2023-03-04T19:44:05;18.77;;;15.25;;
64560;SDS011;50960;46.838;16.838;2023-03-04T19:46:32;21.52;;;15.43;;
64560;SDS011;50960;46.838;16.838;2023-03-04T19:49:00;20.55;;;16.10;;
64560;SDS011;50960;46.838;16.838;2023-03-04T19:51:29;19.20;;;14.80;;
64560;SDS011;50960;46.838;16.838;2023-03-04T19:53:57;21.38;;;17.08;;
64560;SDS011;50960;46.838;16.838;2023-03-04T19:56:25;19.17;;;15.73;;
64560;SDS011;50960;46.838;16.838;2023-03-04T19:58:52;19.40;;;15.43;;
64560;SDS011;50960;46.838;16.838;2023-03-04T20:01:23;19.15;;;15.50;;
64560;SDS011;50960;46.838;16.838;2023-03-04T20:03:53;18.00;;;14.55;;
64560;SDS011;50960;46.838;16.838;2023-03-04T20:06:22;19.17;;;16.15;;
64560;SDS011;50960;46.838;16.838;2023-03-04T20:08:55;18.80;;;15.23;;
64560;SDS011;50960;46.838;16.838;2023-03-04T20:11:23;16.47;;;13.60;;
64560;SDS011;50960;46.838;16.838;2023-03-04T20:13:50;17.85;;;14.55;;
64560;SDS011;50960;46.838;16.838;2023-03-04T20:16:18;15.13;;;12.77;;
64560;SDS011;50960;46.838;16.838;2023-03-04T20:18:45;13.38;;;11.38;;